Time;durP1;ratioP1;P1;durP2;ratioP2;P2;SDS_P1;SDS_P2;PMS_P1;PMS_P2;Temp;Humidity;BMP_temperature;BMP_pressure;BME280_temperature;BME280_humidity;BME280_pressure;Samples;Min_cycle;Max_cycle;Signal;HPM_P1;HPM_P2
2023/09/28 00:01:18;;;;;;;17.30;6.10;;;;;;;-142.57;74.09;59461.00;5035975;28;20117;-77
2023/09/28 00:03:45;;;;;;;15.05;5.80;;;;;;;-142.57;74.55;59408.41;5036031;28;20108;-79
2023/09/28 00:06:11;;;;;;;9.80;5.68;;;;;;;-142.57;74.20;59424.59;5034692;28;20041;-80
2023/09/28 00:08:37;;;;;;;16.83;6.25;;;;;;;-142.57;74.73;59376.06;5035401;28;20097;-82
2023/09/28 00:11:04;;;;;;;18.75;6.53;;;;;;;-142.57;76.27;59319.41;5034042;28;20483;-77
2023/09/28 00:13:30;;;;;;;20.20;5.93;;;;;;;-142.57;76.38;59291.09;5034949;28;20034;-80
2023/09/28 00:15:56;;;;;;;13.30;6.28;;;;;;;-142.57;75.17;59359.88;5034810;28;20037;-80
2023/09/28 00:18:23;;;;;;;12.60;5.93;;;;;;;-142.57;74.46;59469.09;5034813;28;20037;-79
2023/09/28 00:20:49;;;;;;;16.23;6.60;;;;;;;-142.57;76.18;59303.25;5034958;28;20046;-80
2023/09/28 00:23:16;;;;;;;16.05;6.68;;;;;;;-142.57;76.42;59299.19;5034706;28;20079;-78
2023/09/28 00:25:41;;;;;;;14.38;7.35;;;;;;;-142.57;77.40;59252.69;5033452;28;20061;-78
2023/09/28 00:28:07;;;;;;;10.45;6.22;;;;;;;-142.57;76.36;59287.06;5034673;28;20517;-79
2023/09/28 00:30:32;;;;;;;22.65;7.30;;;;;;;-142.57;77.51;59262.78;5034457;28;20569;-80
2023/09/28 00:33:01;;;;;;;16.77;6.75;;;;;;;-142.57;76.45;59327.50;5034578;28;20071;-79
2023/09/28 00:35:27;;;;;;;13.93;7.05;;;;;;;-142.57;77.58;59268.88;5034490;28;20131;-79
2023/09/28 00:37:53;;;;;;;18.17;7.15;;;;;;;-142.57;77.46;59285.03;5032969;28;20536;-79
2023/09/28 00:40:24;;;;;;;16.02;6.90;;;;;;;-142.57;78.49;59258.75;5034538;28;20034;-79
2023/09/28 00:42:53;;;;;;;14.15;6.57;;;;;;;-142.57;79.27;59228.41;5033261;28;20039;-79
2023/09/28 00:45:22;;;;;;;18.35;6.75;;;;;;;-142.57;77.56;59297.19;5034707;28;20107;-79
2023/09/28 00:47:50;;;;;;;13.77;5.78;;;;;;;-142.57;75.76;59420.53;5032940;28;20088;-80
2023/09/28 00:50:16;;;;;;;14.52;6.13;;;;;;;-142.57;75.06;59388.19;5032673;28;20065;-80
2023/09/28 00:52:43;;;;;;;17.92;6.65;;;;;;;-142.57;75.12;59339.66;5034348;28;20485;-81
2023/09/28 00:55:11;;;;;;;16.38;5.82;;;;;;;-142.57;76.15;59335.59;5034105;28;20490;-79
2023/09/28 00:57:38;;;;;;;13.82;6.43;;;;;;;-142.57;75.00;59335.59;5034953;28;20033;-79
2023/09/28 01:00:18;;;;;;;9.80;6.72;;;;;;;-142.57;76.45;59260.78;5035854;28;20494;-79
2023/09/28 01:02:50;;;;;;;22.23;7.43;;;;;;;-142.57;78.32;59137.41;5034817;28;20037;-77
2023/09/28 01:05:17;;;;;;;17.48;4.88;;;;;;;-142.57;78.94;59111.13;5036553;28;20033;-80
2023/09/28 01:07:42;;;;;;;12.75;6.50;;;;;;;-142.57;80.07;59173.81;5032271;28;20037;-80
2023/09/28 01:10:12;;;;;;;16.27;6.57;;;;;;;-142.57;78.88;59210.22;5032765;28;20030;-79
2023/09/28 01:12:41;;;;;;;17.45;7.45;;;;;;;-142.57;78.25;59177.84;5033939;28;20030;-80
2023/09/28 01:15:12;;;;;;;18.55;6.40;;;;;;;-142.57;77.35;59206.16;5034540;28;20129;-79
2023/09/28 01:17:40;;;;;;;10.60;6.32;;;;;;;-142.57;78.01;59161.69;5033835;28;20048;-78
2023/09/28 01:20:25;;;;;;;17.15;6.50;;;;;;;-142.57;78.72;59078.75;5034343;28;20105;-80
2023/09/28 01:22:50;;;;;;;17.27;6.78;;;;;;;-142.57;78.01;59143.47;5034424;28;20029;-78
2023/09/28 01:25:19;;;;;;;9.93;6.78;;;;;;;-142.57;76.60;59258.75;5033676;28;20113;-78
2023/09/28 01:27:46;;;;;;;8.82;6.18;;;;;;;-142.57;77.87;59151.56;5033849;28;20056;-80
2023/09/28 01:30:13;;;;;;;22.52;7.30;;;;;;;-142.57;77.46;59129.31;5032587;28;20390;-79
2023/09/28 01:32:39;;;;;;;14.93;6.43;;;;;;;-142.57;78.38;59056.53;5032237;28;20454;-80
2023/09/28 01:35:06;;;;;;;16.48;6.82;;;;;;;-142.57;78.71;59054.50;5033443;28;20042;-79
2023/09/28 01:37:44;;;;;;;17.13;6.78;;;;;;;-142.57;78.40;59129.31;5033193;28;20121;-79
2023/09/28 01:40:13;;;;;;;11.77;6.13;;;;;;;-142.57;76.45;59181.91;5032046;28;20045;-79
2023/09/28 01:42:38;;;;;;;19.38;7.20;;;;;;;-142.57;76.96;59181.91;5033191;28;20080;-77
2023/09/28 01:45:04;;;;;;;15.35;7.13;;;;;;;-142.57;78.67;59056.53;5032889;28;20041;-79
2023/09/28 01:47:30;;;;;;;12.77;6.90;;;;;;;-142.57;79.29;59012.03;5032281;28;20488;-81
2023/09/28 01:49:55;;;;;;;29.65;7.05;;;;;;;-142.57;79.10;59008.00;5032864;28;20112;-80
2023/09/28 01:52:21;;;;;;;13.20;7.38;;;;;;;-142.57;78.05;59040.34;5033051;28;20545;-79
2023/09/28 01:54:46;;;;;;;10.50;6.47;;;;;;;-142.57;77.62;59117.19;5033037;28;20060;-80
2023/09/28 01:57:12;;;;;;;11.45;6.78;;;;;;;-142.57;77.77;59080.78;5031898;28;20033;-78
2023/09/28 01:59:37;;;;;;;17.58;7.07;;;;;;;-142.57;77.43;59072.69;5031291;28;20463;-79
2023/09/28 02:02:04;;;;;;;14.13;7.30;;;;;;;-142.57;79.25;59042.38;5031440;28;20117;-80
2023/09/28 02:04:30;;;;;;;15.30;7.22;;;;;;;-142.57;79.71;58967.53;5033133;28;20060;-79
2023/09/28 02:06:55;;;;;;;12.52;6.25;;;;;;;-142.57;78.96;59036.31;5028682;28;21283;-79
2023/09/28 02:09:21;;;;;;;16.90;7.28;;;;;;;-142.57;78.12;59084.84;5028674;28;20029;-80
2023/09/28 02:11:46;;;;;;;14.20;7.00;;;;;;;-142.57;77.52;59121.22;5010061;28;20094;-80
2023/09/28 02:14:12;;;;;;;16.88;6.95;;;;;;;-142.57;76.69;59086.84;5032555;28;20501;-82
2023/09/28 02:16:38;;;;;;;17.77;6.97;;;;;;;-142.57;76.29;59133.38;5032333;28;20040;-81
2023/09/28 02:19:04;;;;;;;14.00;7.38;;;;;;;-142.57;78.16;58943.28;5031364;28;20038;-79
2023/09/28 02:21:30;;;;;;;13.40;6.80;;;;;;;-142.57;79.36;58951.38;5032781;28;20438;-81
2023/09/28 02:23:58;;;;;;;18.50;7.72;;;;;;;-142.57;80.89;58868.47;5032484;28;20029;-81
2023/09/28 02:26:25;;;;;;;16.92;7.60;;;;;;;-142.57;81.98;58834.09;5032509;28;20061;-80
2023/09/28 02:28:50;;;;;;;13.85;7.13;;;;;;;-142.57;81.95;58860.38;5032538;28;20057;-80
2023/09/28 02:31:16;;;;;;;20.17;7.10;;;;;;;-142.57;80.63;58858.34;5031165;28;20115;-81
2023/09/28 02:33:41;;;;;;;14.68;6.80;;;;;;;-142.57;80.71;58896.78;5032488;28;20037;-80
2023/09/28 02:36:08;;;;;;;21.08;7.47;;;;;;;-142.57;80.73;58882.63;5033118;28;20559;-81
2023/09/28 02:38:34;;;;;;;15.00;8.10;;;;;;;-142.57;81.73;58902.84;5031928;28;20461;-80
2023/09/28 02:41:00;;;;;;;13.52;6.68;;;;;;;-142.57;82.62;58826.00;5033097;28;20045;-80
2023/09/28 02:43:25;;;;;;;25.63;8.23;;;;;;;-142.57;84.75;58791.63;5031882;28;20045;-79
2023/09/28 02:45:51;;;;;;;26.23;7.65;;;;;;;-142.57;85.94;58773.41;5032909;28;20120;-80
2023/09/28 02:48:17;;;;;;;19.98;7.93;;;;;;;-142.57;86.02;58759.25;5032573;28;20493;-79
2023/09/28 02:50:43;;;;;;;16.13;8.18;;;;;;;-142.57;85.59;58826.00;5036981;28;20124;-79
2023/09/28 02:53:09;;;;;;;21.25;7.40;;;;;;;-142.57;83.89;58925.06;5036645;28;20030;-80
2023/09/28 02:55:36;;;;;;;12.60;7.18;;;;;;;-142.57;84.07;58852.28;5036741;28;20036;-79
2023/09/28 02:58:03;;;;;;;15.98;7.93;;;;;;;-142.57;84.13;58914.97;5035109;28;20041;-79
2023/09/28 03:00:32;;;;;;;15.68;8.35;;;;;;;-142.57;83.99;58902.84;5036708;28;20033;-80
2023/09/28 03:03:00;;;;;;;19.73;8.13;;;;;;;-142.57;86.79;58769.38;5035020;28;20052;-81
2023/09/28 03:05:27;;;;;;;19.75;7.63;;;;;;;-142.57;87.82;58728.94;5035483;28;20120;-80
2023/09/28 03:07:53;;;;;;;18.58;8.40;;;;;;;-142.57;87.07;58741.06;5034689;28;20056;-79
2023/09/28 03:10:23;;;;;;;26.92;9.18;;;;;;;-142.57;86.42;58828.00;5035533;28;20068;-77
2023/09/28 03:12:51;;;;;;;16.77;7.20;;;;;;;-142.57;84.96;58902.84;5036239;28;20040;-78
2023/09/28 03:15:17;;;;;;;18.58;8.40;;;;;;;-142.57;83.26;58931.16;5034940;28;20072;-80
2023/09/28 03:17:46;;;;;;;23.90;8.55;;;;;;;-142.57;83.53;58882.63;5034796;28;20117;-81
2023/09/28 03:20:15;;;;;;;18.48;8.02;;;;;;;-142.57;83.41;58971.59;5034846;28;20387;-81
2023/09/28 03:22:45;;;;;;;16.80;7.85;;;;;;;-142.57;83.17;58951.38;5036060;28;20065;-82
2023/09/28 03:25:17;;;;;;;18.80;8.63;;;;;;;-142.57;84.37;58910.94;5035856;28;20356;-81
2023/09/28 03:27:45;;;;;;;25.67;8.68;;;;;;;-142.57;86.11;58817.91;5035138;28;20052;-79
2023/09/28 03:30:12;;;;;;;23.38;8.70;;;;;;;-142.57;88.26;58765.34;5035819;28;20545;-80
2023/09/28 03:32:38;;;;;;;28.85;9.00;;;;;;;-142.57;87.94;58809.81;5034518;28;20033;-81
2023/09/28 03:35:05;;;;;;;22.60;8.43;;;;;;;-142.57;88.66;58759.25;5035992;28;20029;-79
2023/09/28 03:37:31;;;;;;;19.85;8.85;;;;;;;-142.57;87.87;58739.03;5035588;28;20083;-81
2023/09/28 03:39:58;;;;;;;16.20;8.05;;;;;;;-142.57;87.39;58783.53;5035314;28;20037;-78
2023/09/28 03:42:23;;;;;;;16.13;8.40;;;;;;;-142.57;87.30;58765.34;5035533;28;20509;-77
2023/09/28 03:44:49;;;;;;;19.98;8.95;;;;;;;-142.57;86.37;58781.50;5034563;28;20041;-79
2023/09/28 03:47:15;;;;;;;16.60;8.90;;;;;;;-142.57;85.59;58850.25;5035767;28;20033;-78
2023/09/28 03:49:40;;;;;;;20.73;7.80;;;;;;;-142.57;85.71;58811.84;5035475;28;20067;-82
2023/09/28 03:52:05;;;;;;;17.63;8.60;;;;;;;-142.57;87.61;58745.09;5035768;28;20025;-80
2023/09/28 03:54:31;;;;;;;18.67;8.70;;;;;;;-142.57;86.47;58801.72;5036686;28;20120;-80
2023/09/28 03:56:56;;;;;;;17.33;8.13;;;;;;;-142.57;87.10;58741.06;5036740;28;20041;-79
2023/09/28 03:59:22;;;;;;;17.60;9.23;;;;;;;-142.57;88.89;58656.13;5035488;28;20108;-79
2023/09/28 04:01:51;;;;;;;26.52;8.18;;;;;;;-142.57;89.22;58656.13;5035847;28;20501;-80
2023/09/28 04:04:16;;;;;;;14.88;8.35;;;;;;;-142.57;89.82;58631.88;5035704;28;20436;-78
2023/09/28 04:06:42;;;;;;;15.90;8.52;;;;;;;-142.57;87.59;58773.41;5035350;28;20046;-79
2023/09/28 04:09:08;;;;;;;27.40;9.68;;;;;;;-142.57;87.12;58757.25;5034119;28;20059;-79
2023/09/28 04:11:34;;;;;;;25.25;8.82;;;;;;;-142.57;86.59;58801.72;5034661;28;20478;-80
2023/09/28 04:14:01;;;;;;;18.55;8.55;;;;;;;-142.57;87.59;58726.91;5035415;28;20087;-80
2023/09/28 04:16:27;;;;;;;34.60;8.32;;;;;;;-142.57;87.21;58761.28;5034910;28;20042;-82
2023/09/28 04:18:52;;;;;;;16.05;8.07;;;;;;;-142.57;86.52;58811.84;5034795;28;20037;-80
2023/09/28 04:21:18;;;;;;;35.35;9.50;;;;;;;-142.57;89.78;58688.50;5034716;28;20038;-81
2023/09/28 04:23:43;;;;;;;17.60;8.43;;;;;;;-142.57;93.48;58553.03;5035279;28;20108;-83
2023/09/28 04:26:09;;;;;;;18.23;8.52;;;;;;;-142.57;94.43;58591.44;5033373;28;20043;-82
2023/09/28 04:28:35;;;;;;;24.00;8.82;;;;;;;-142.57;94.08;58601.53;5034488;28;20037;-78
2023/09/28 04:31:00;;;;;;;18.33;9.52;;;;;;;-142.57;94.71;58575.25;5034222;28;20447;-79
2023/09/28 04:33:26;;;;;;;20.45;9.30;;;;;;;-142.57;96.00;58571.22;5033994;28;20095;-80
2023/09/28 04:35:51;;;;;;;28.85;9.32;;;;;;;-142.57;96.26;58615.69;5034570;28;20041;-80
2023/09/28 04:38:17;;;;;;;25.77;9.43;;;;;;;-142.57;97.05;58579.31;5034239;28;20079;-82
2023/09/28 04:40:43;;;;;;;21.52;9.02;;;;;;;-142.57;97.19;58542.91;5034243;28;20102;-78
2023/09/28 04:43:08;;;;;;;29.77;9.65;;;;;;;-142.57;98.99;58538.88;5033775;28;20432;-78
2023/09/28 04:45:34;;;;;;;28.17;9.23;;;;;;;-142.57;99.59;58504.50;5031370;28;20340;-80
2023/09/28 04:48:00;;;;;;;40.33;10.63;;;;;;;-142.57;97.43;58591.44;5031093;28;20033;-78
2023/09/28 04:50:26;;;;;;;37.88;9.85;;;;;;;-142.57;99.78;58498.44;5032327;28;20162;-83
2023/09/28 04:52:51;;;;;;;28.92;10.52;;;;;;;-142.57;100.00;58478.22;5034002;28;20033;-79
2023/09/28 04:55:17;;;;;;;28.80;10.40;;;;;;;-142.57;100.00;58510.56;5029028;28;20113;-79
2023/09/28 04:57:42;;;;;;;26.13;10.23;;;;;;;-142.57;99.09;58532.78;5033930;28;20033;-79
2023/09/28 05:00:15;;;;;;;22.63;9.82;;;;;;;-142.57;100.00;58484.28;5033545;28;20029;-78
2023/09/28 05:02:41;;;;;;;22.58;9.18;;;;;;;-142.57;100.00;58453.94;5034209;28;20122;-80
2023/09/28 05:05:06;;;;;;;21.65;8.88;;;;;;;-142.57;100.00;58409.47;5033958;28;20037;-83
2023/09/28 05:07:32;;;;;;;19.10;9.07;;;;;;;-142.57;100.00;58401.38;5034188;28;20453;-80
2023/09/28 05:10:00;;;;;;;22.48;9.32;;;;;;;-142.57;100.00;58362.97;5034499;28;20052;-78
2023/09/28 05:12:26;;;;;;;18.27;8.82;;;;;;;-142.57;100.00;58425.63;5034739;28;20032;-84
2023/09/28 05:17:33;;;;;;;33.25;9.40;;;;;;;-142.57;100.00;58445.84;5013655;28;20049;-81
2023/09/28 05:20:01;;;;;;;41.22;9.52;;;;;;;-142.57;100.00;58561.09;5014506;28;20045;-81
2023/09/28 05:22:27;;;;;;;25.90;8.88;;;;;;;-142.57;98.96;58571.22;5014607;28;20490;-79
2023/09/28 05:25:06;;;;;;;26.08;7.97;;;;;;;-142.57;97.45;58702.66;5010734;28;20054;-83
2023/09/28 05:27:33;;;;;;;19.95;8.60;;;;;;;-142.57;95.22;58801.72;5014541;28;20042;-80
2023/09/28 05:29:58;;;;;;;26.33;8.88;;;;;;;-142.57;93.48;58850.25;5011188;28;20030;-82
2023/09/28 05:32:24;;;;;;;33.80;9.30;;;;;;;-142.57;90.88;58870.47;5012581;28;20364;-83
2023/09/28 05:34:50;;;;;;;25.88;9.25;;;;;;;-142.57;91.11;58876.53;5008556;28;20034;-80
2023/09/28 05:37:15;;;;;;;31.45;8.15;;;;;;;-142.57;90.14;58991.81;4994313;28;20500;-81
2023/09/28 05:39:41;;;;;;;37.05;8.75;;;;;;;-142.57;87.78;59105.06;5005018;28;20057;-81
2023/09/28 05:42:07;;;;;;;47.97;8.63;;;;;;;-142.57;85.36;59198.09;5014169;28;20083;-82
2023/09/28 05:44:33;;;;;;;29.02;8.68;;;;;;;-142.57;86.04;59068.66;5013321;28;20034;-82
2023/09/28 05:46:59;;;;;;;20.38;8.45;;;;;;;-142.57;90.61;58846.22;5012796;28;20030;-83
2023/09/28 05:49:26;;;;;;;22.58;8.02;;;;;;;-142.57;92.56;58743.09;5014106;28;20044;-82
2023/09/28 05:51:52;;;;;;;23.40;8.15;;;;;;;-142.57;96.13;58648.06;5013898;28;20037;-81
2023/09/28 05:54:18;;;;;;;25.33;8.25;;;;;;;-142.57;96.38;58676.34;5014316;28;20037;-82
2023/09/28 05:56:44;;;;;;;22.95;9.40;;;;;;;-142.57;94.63;58767.34;5012491;28;20038;-82
2023/09/28 05:59:10;;;;;;;37.42;9.85;;;;;;;-142.57;94.07;58866.44;5013663;28;20380;-81
2023/09/28 06:01:36;;;;;;;27.02;9.38;;;;;;;-142.57;91.28;58880.59;5013766;28;20024;-80
2023/09/28 06:04:02;;;;;;;29.63;9.07;;;;;;;-142.57;94.53;58670.28;5014165;28;20137;-79
2023/09/28 06:06:27;;;;;;;25.15;9.45;;;;;;;-142.57;94.32;58769.38;5014720;28;20037;-82
2023/09/28 06:08:53;;;;;;;21.27;9.02;;;;;;;-142.57;95.22;58745.09;5014477;28;20460;-83
2023/09/28 06:11:22;;;;;;;21.83;9.52;;;;;;;-142.57;96.38;58668.28;5014621;28;20034;-82
2023/09/28 06:13:49;;;;;;;25.42;10.15;;;;;;;-142.57;96.46;58696.59;5013857;28;20022;-78
2023/09/28 06:16:15;;;;;;;30.60;10.00;;;;;;;-142.57;98.31;58654.13;5012769;28;20088;-84
2023/09/28 06:18:42;;;;;;;41.20;10.13;;;;;;;-142.57;98.93;58648.06;5013691;28;20546;-82
2023/09/28 06:21:07;;;;;;;33.67;11.32;;;;;;;-142.57;99.48;58680.41;5013857;28;20034;-81
2023/09/28 06:23:33;;;;;;;28.83;10.38;;;;;;;-142.57;98.64;58684.44;5013816;28;20030;-82
2023/09/28 06:26:00;;;;;;;27.35;9.90;;;;;;;-142.57;96.29;58749.16;5014029;28;20038;-79
2023/09/28 06:28:26;;;;;;;30.83;9.52;;;;;;;-142.57;96.42;58757.25;5013806;28;20356;-83
2023/09/28 06:30:55;;;;;;;30.35;10.52;;;;;;;-142.57;98.03;58732.97;5016244;28;20038;-83
2023/09/28 06:33:24;;;;;;;26.33;10.00;;;;;;;-142.57;98.59;58773.41;5013186;28;20040;-81
2023/09/28 06:35:50;;;;;;;26.35;10.50;;;;;;;-142.57;96.07;58828.00;5013103;28;20034;-81
2023/09/28 06:38:16;;;;;;;21.17;8.80;;;;;;;-142.57;94.81;58931.16;5012748;28;20038;-82
2023/09/28 06:40:47;;;;;;;27.05;9.70;;;;;;;-142.57;94.29;58929.13;5012654;28;20196;-80
2023/09/28 06:43:14;;;;;;;27.35;10.57;;;;;;;-142.57;92.31;59070.69;5011691;28;20120;-80
2023/09/28 06:45:40;;;;;;;28.63;9.65;;;;;;;-142.57;94.72;58933.16;5012508;28;20045;-81
2023/09/28 06:48:06;;;;;;;21.45;9.65;;;;;;;-142.57;93.99;58983.72;5012440;28;20467;-81
2023/09/28 06:50:31;;;;;;;28.05;10.07;;;;;;;-142.57;94.45;58971.59;5011520;28;20483;-82
2023/09/28 06:52:57;;;;;;;21.60;9.68;;;;;;;-142.57;93.82;58983.72;5011958;28;20088;-80
2023/09/28 06:55:25;;;;;;;23.60;9.45;;;;;;;-142.57;92.52;59072.69;5011921;28;20331;-81
2023/09/28 06:57:51;;;;;;;17.70;9.20;;;;;;;-142.57;91.02;59137.41;5011652;28;20041;-81
2023/09/28 07:00:17;;;;;;;21.40;9.38;;;;;;;-142.57;89.83;59252.69;5011699;28;20157;-79
2023/09/28 07:02:47;;;;;;;20.75;10.05;;;;;;;-142.57;88.93;59349.75;5012581;28;20053;-82
2023/09/28 07:05:19;;;;;;;14.80;9.90;;;;;;;-142.57;88.07;59410.44;5010853;28;20061;-80
2023/09/28 07:07:45;;;;;;;22.08;10.43;;;;;;;-142.57;85.14;59507.50;5010926;28;20096;-82
2023/09/28 07:10:14;;;;;;;19.10;9.98;;;;;;;-142.57;82.56;59582.34;5012785;28;20038;-82
2023/09/28 07:12:40;;;;;;;25.95;10.15;;;;;;;-142.57;83.07;59549.97;5012743;28;20061;-81
2023/09/28 07:15:08;;;;;;;35.08;10.35;;;;;;;-142.57;85.09;59533.81;5012099;28;20077;-80
2023/09/28 07:17:34;;;;;;;34.55;10.65;;;;;;;-142.57;86.04;59501.44;5012254;28;20066;-81
2023/09/28 07:20:00;;;;;;;36.78;10.75;;;;;;;-142.57;88.14;59517.63;5012391;28;20038;-80
2023/09/28 07:22:26;;;;;;;22.15;11.02;;;;;;;-142.57;90.26;59404.38;5011185;28;20446;-83
2023/09/28 07:24:53;;;;;;;28.00;10.65;;;;;;;-142.57;89.33;59602.56;5011558;28;20057;-82
2023/09/28 07:27:18;;;;;;;32.17;11.27;;;;;;;-142.57;88.30;59626.84;5012625;28;20038;-82
2023/09/28 07:29:44;;;;;;;26.33;11.73;;;;;;;-142.57;86.86;59695.59;5012476;28;20034;-81
2023/09/28 07:32:10;;;;;;;27.48;12.07;;;;;;;-142.57;87.39;59689.53;5011964;28;20466;-82
2023/09/28 07:34:36;;;;;;;31.60;11.38;;;;;;;-142.57;88.57;59643.00;5012596;28;20038;-81
2023/09/28 07:37:01;;;;;;;29.50;10.90;;;;;;;-142.57;86.66;59689.53;5016059;28;20076;-81
2023/09/28 07:39:27;;;;;;;33.22;11.05;;;;;;;-142.57;84.54;59756.28;5015628;28;20053;-79
2023/09/28 07:41:53;;;;;;;32.08;10.52;;;;;;;-142.57;83.13;59804.81;5016251;28;20112;-78
2023/09/28 07:44:19;;;;;;;26.02;10.52;;;;;;;-142.57;80.91;59996.97;5015350;28;20034;-79
2023/09/28 07:46:45;;;;;;;20.40;9.88;;;;;;;-142.57;76.68;60152.72;5015298;28;20149;-79
2023/09/28 07:49:12;;;;;;;23.88;8.95;;;;;;;-142.57;74.35;60241.72;5016402;28;20044;-80
2023/09/28 07:51:39;;;;;;;24.30;8.93;;;;;;;-142.57;72.73;60314.56;5015456;28;20048;-82
2023/09/28 07:54:05;;;;;;;26.75;7.93;;;;;;;-142.57;71.05;60306.47;5015791;28;20479;-81
2023/09/28 07:56:31;;;;;;;17.83;7.57;;;;;;;-142.57;69.85;60300.41;5016170;28;20060;-83
2023/09/28 07:58:59;;;;;;;24.38;7.95;;;;;;;-142.57;69.65;60346.91;5014500;28;20038;-80
2023/09/28 08:01:28;;;;;;;28.67;8.38;;;;;;;-142.57;68.46;60496.63;5015899;28;20046;-80
2023/09/28 08:03:55;;;;;;;23.52;8.02;;;;;;;-142.57;69.39;60423.78;5016472;28;20069;-82
2023/09/28 08:06:21;;;;;;;19.08;8.90;;;;;;;-142.57;69.57;60446.03;5014429;28;20065;-79
2023/09/28 08:08:46;;;;;;;21.52;10.07;;;;;;;-142.57;70.80;60476.38;5014476;28;20069;-80
2023/09/28 08:11:12;;;;;;;17.48;8.88;;;;;;;-142.57;70.44;60559.31;5019489;28;20041;-82
2023/09/28 08:13:38;;;;;;;28.92;9.13;;;;;;;-142.57;70.95;60480.44;5016655;28;20022;-81
2023/09/28 08:16:04;;;;;;;22.60;9.32;;;;;;;-142.57;72.92;60318.59;5015604;28;20049;-81
2023/09/28 08:18:29;;;;;;;21.50;9.40;;;;;;;-142.57;73.04;60355.00;5017701;28;20113;-79
2023/09/28 08:20:55;;;;;;;22.08;9.38;;;;;;;-142.57;73.88;60302.41;5034730;28;20022;-77
2023/09/28 08:23:20;;;;;;;16.63;9.77;;;;;;;-142.57;74.07;60261.97;5031307;28;20034;-80
2023/09/28 08:25:49;;;;;;;21.67;9.38;;;;;;;-142.57;74.72;60168.91;5032168;28;20097;-81
2023/09/28 08:28:14;;;;;;;23.42;9.35;;;;;;;-142.57;76.06;60168.91;5033165;28;20030;-80
2023/09/28 08:30:41;;;;;;;25.38;9.32;;;;;;;-142.57;73.88;60286.22;5033910;28;20092;-79
2023/09/28 08:33:08;;;;;;;24.15;10.82;;;;;;;-142.57;74.74;60219.47;5028544;28;20053;-81
2023/09/28 08:35:34;;;;;;;23.38;10.40;;;;;;;-142.57;76.82;60168.91;5016344;28;20080;-80
2023/09/28 08:37:59;;;;;;;29.58;11.07;;;;;;;-142.57;76.67;60073.84;5017132;28;20037;-79
2023/09/28 08:40:25;;;;;;;24.58;9.93;;;;;;;-142.57;76.12;60051.59;5015124;28;20056;-80
2023/09/28 08:42:51;;;;;;;16.63;11.10;;;;;;;-142.57;75.04;60108.22;4991697;28;20050;-83
2023/09/28 08:45:17;;;;;;;23.75;11.23;;;;;;;-142.57;73.85;60187.13;4996801;28;20042;-82
2023/09/28 08:47:48;;;;;;;21.33;11.20;;;;;;;-142.57;73.01;60215.44;4994539;28;20049;-80
2023/09/28 08:50:30;;;;;;;27.43;11.00;;;;;;;-142.57;73.24;60120.38;4995300;28;20035;-82
2023/09/28 08:52:57;;;;;;;19.77;10.97;;;;;;;-142.57;73.81;60164.88;4995335;28;20277;-81
2023/09/28 08:55:24;;;;;;;32.00;10.82;;;;;;;-142.57;73.38;60148.69;4995325;28;20042;-83
2023/09/28 08:57:50;;;;;;;24.42;11.45;;;;;;;-142.57;73.77;60055.63;4995230;28;20088;-80
2023/09/28 09:00:22;;;;;;;21.70;10.35;;;;;;;-142.57;72.73;60166.88;4995852;28;20030;-82
2023/09/28 09:02:49;;;;;;;48.60;11.52;;;;;;;-142.57;73.03;60128.44;4995156;28;20042;-79
2023/09/28 09:05:14;;;;;;;26.77;11.40;;;;;;;-142.57;72.95;60148.69;4995022;28;20093;-79
2023/09/28 09:07:42;;;;;;;26.00;11.13;;;;;;;-142.57;73.27;60096.09;4977827;28;20042;-81
2023/09/28 09:10:12;;;;;;;18.85;9.63;;;;;;;-142.57;72.08;60209.38;4995564;28;20564;-81
2023/09/28 09:12:38;;;;;;;26.50;10.40;;;;;;;-142.57;72.13;60241.72;4996563;28;20461;-84
2023/09/28 09:15:07;;;;;;;26.70;10.57;;;;;;;-142.57;71.61;60322.66;4997758;28;20041;-84
2023/09/28 09:17:33;;;;;;;20.15;9.70;;;;;;;-142.57;68.39;60399.50;5001449;28;20065;-83
2023/09/28 09:20:00;;;;;;;22.42;9.48;;;;;;;-142.57;65.55;60609.91;5017585;28;20392;-85
2023/09/28 09:22:28;;;;;;;16.02;9.05;;;;;;;-142.57;62.16;60889.09;5018598;28;20045;-88
2023/09/28 09:24:54;;;;;;;19.98;8.25;;;;;;;-142.57;61.76;61052.97;5020243;28;20037;-86
2023/09/28 09:27:31;;;;;;;26.77;10.13;;;;;;;-142.57;60.95;61079.28;5017291;28;20484;-88
2023/09/28 09:30:08;;;;;;;22.88;8.43;;;;;;;-142.57;60.39;60988.22;5016770;28;20034;-82
2023/09/28 09:32:39;;;;;;;23.70;9.05;;;;;;;-142.57;60.50;60959.91;5014936;28;20037;-86
2023/09/28 09:35:06;;;;;;;28.40;9.33;;;;;;;-142.57;59.90;61057.03;5017160;28;20084;-87
2023/09/28 09:37:32;;;;;;;18.83;8.65;;;;;;;-142.57;59.03;61152.13;5017723;28;20121;-86
2023/09/28 09:40:11;;;;;;;22.92;8.05;;;;;;;-142.57;57.70;61400.97;5017909;28;20037;-86
2023/09/28 09:42:37;;;;;;;16.15;8.98;;;;;;;-142.57;56.18;61700.47;5016654;28;20033;-87
2023/09/28 09:45:04;;;;;;;19.48;8.48;;;;;;;-142.57;55.96;61712.59;5017698;28;20041;-86
2023/09/28 09:47:30;;;;;;;18.80;9.05;;;;;;;-142.57;53.04;62155.78;5015770;28;20545;-86
2023/09/28 09:49:57;;;;;;;19.77;7.75;;;;;;;-142.57;50.79;62348.06;5014966;28;20041;-85
2023/09/28 09:52:24;;;;;;;20.13;8.25;;;;;;;-142.57;47.84;62556.53;5014862;28;20041;-85
2023/09/28 09:54:55;;;;;;;23.88;8.18;;;;;;;-142.57;46.69;63032.22;5014541;28;20446;-84
2023/09/28 09:57:23;;;;;;;16.85;8.52;;;;;;;-142.57;42.99;64107.22;5016579;28;20136;-87
2023/09/28 09:59:57;;;;;;;18.33;7.90;;;;;;;-142.57;39.72;65097.47;5013019;28;20041;-83
2023/09/28 10:02:28;;;;;;;15.38;7.35;;;;;;;-142.57;38.81;65593.72;5012186;28;20049;-85
2023/09/28 10:04:55;;;;;;;19.13;8.13;;;;;;;-142.57;39.56;64939.50;5015008;28;20352;-86
2023/09/28 10:07:32;;;;;;;25.30;8.68;;;;;;;-142.57;39.30;65002.28;5016350;28;20073;-85
2023/09/28 10:09:58;;;;;;;19.95;8.38;;;;;;;-142.57;37.84;65441.81;5015055;28;20066;-84
2023/09/28 10:12:27;;;;;;;22.63;8.38;;;;;;;-142.57;37.59;65518.78;5015938;28;20518;-84
2023/09/28 10:14:56;;;;;;;21.13;8.60;;;;;;;-142.57;37.35;65585.63;5016060;28;20050;-85
2023/09/28 10:17:26;;;;;;;26.33;9.93;;;;;;;-142.57;36.88;66087.97;5016878;28;20046;-84
2023/09/28 10:20:00;;;;;;;20.27;8.40;;;;;;;-142.57;36.84;66250.06;5016708;28;20034;-85
2023/09/28 10:22:25;;;;;;;26.98;9.52;;;;;;;-142.57;36.96;66173.06;5016259;28;20034;-81
2023/09/28 10:24:51;;;;;;;19.48;8.65;;;;;;;-142.57;37.84;66221.69;5015871;28;20030;-85
2023/09/28 10:27:17;;;;;;;22.02;9.48;;;;;;;-142.57;37.17;66213.59;5017791;28;20468;-86
2023/09/28 10:29:43;;;;;;;23.10;8.70;;;;;;;-142.57;36.15;66795.06;5017170;28;20038;-84
2023/09/28 10:32:26;;;;;;;29.13;9.55;;;;;;;-142.57;35.11;67202.34;5015656;28;20513;-82
2023/09/28 10:35:12;;;;;;;16.75;8.60;;;;;;;-142.57;34.14;67636.00;5014943;28;20100;-85
2023/09/28 10:37:37;;;;;;;27.33;9.75;;;;;;;-142.57;33.24;68325.13;5014078;28;20122;-82
2023/09/28 10:40:04;;;;;;;21.15;9.13;;;;;;;-142.57;33.24;68483.22;5013357;28;20038;-83
2023/09/28 10:42:30;;;;;;;28.65;9.45;;;;;;;-142.57;32.60;68098.09;5014335;28;20038;-82
2023/09/28 10:44:56;;;;;;;18.48;8.88;;;;;;;-142.57;32.92;68165.00;5013771;28;20034;-81
2023/09/28 10:47:23;;;;;;;24.33;9.32;;;;;;;-142.57;32.95;68136.59;5013726;28;20034;-82
2023/09/28 10:49:58;;;;;;;15.88;8.55;;;;;;;-142.57;32.53;68132.56;5013199;28;20033;-83
2023/09/28 10:52:23;;;;;;;27.80;10.90;;;;;;;-142.57;32.72;68189.31;5012148;28;20402;-83
2023/09/28 10:54:49;;;;;;;24.55;9.45;;;;;;;-142.57;32.19;68912.97;5011919;28;20046;-82
2023/09/28 10:57:15;;;;;;;23.95;9.95;;;;;;;-142.57;32.02;69231.25;5015143;28;20042;-84
2023/09/28 10:59:41;;;;;;;19.38;9.70;;;;;;;-142.57;31.09;69204.91;5012542;28;20096;-83
2023/09/28 11:02:07;;;;;;;23.15;9.68;;;;;;;-142.57;31.76;68675.78;5012739;28;20042;-85
2023/09/28 11:04:37;;;;;;;25.70;8.80;;;;;;;-142.57;32.23;68211.59;5013617;28;20045;-84
2023/09/28 11:07:03;;;;;;;13.95;7.75;;;;;;;-142.57;31.77;68085.94;5012750;28;20488;-84
2023/09/28 11:09:29;;;;;;;22.83;7.93;;;;;;;-142.57;32.32;68284.56;5013452;28;20048;-84